Time;durP1;ratioP1;P1;durP2;ratioP2;P2;SDS_P1;SDS_P2;PMS_P1;PMS_P2;Temp;Humidity;BMP_temperature;BMP_pressure;BME280_temperature;BME280_humidity;BME280_pressure;Samples;Min_cycle;Max_cycle;Signal;HPM_P1;HPM_P2
2022/09/13 00:00:33;;;;;;;7.22;6.38;;;17.80;54.00;;;;;;5070672;28;20380;-72
2022/09/13 00:02:59;;;;;;;7.25;5.80;;;17.70;54.50;;;;;;5070446;28;20387;-72
2022/09/13 00:05:24;;;;;;;8.30;5.90;;;17.80;55.00;;;;;;5070857;28;20891;-72
2022/09/13 00:07:50;;;;;;;7.80;6.30;;;17.70;54.80;;;;;;5070665;28;20402;-72
2022/09/13 00:10:16;;;;;;;8.33;6.27;;;17.70;56.00;;;;;;5070649;28;20376;-72
2022/09/13 00:12:42;;;;;;;8.20;5.50;;;17.70;55.80;;;;;;5070458;28;20391;-72
2022/09/13 00:15:08;;;;;;;9.13;6.28;;;17.90;54.30;;;;;;5070467;28;20427;-72
2022/09/13 00:17:34;;;;;;;8.38;5.45;;;17.90;54.00;;;;;;5070499;28;20744;-71
2022/09/13 00:20:00;;;;;;;6.83;6.00;;;18.00;53.00;;;;;;5070455;28;20453;-72
2022/09/13 00:22:26;;;;;;;6.73;5.80;;;18.10;52.70;;;;;;5070468;28;20802;-73
2022/09/13 00:24:52;;;;;;;7.20;5.70;;;18.10;51.90;;;;;;5070293;28;20407;-72
2022/09/13 00:27:18;;;;;;;6.63;5.65;;;18.10;52.50;;;;;;5070549;28;20800;-73
2022/09/13 00:29:43;;;;;;;7.22;5.70;;;18.10;52.30;;;;;;5070498;28;20411;-73
2022/09/13 00:32:09;;;;;;;6.53;5.47;;;18.20;51.60;;;;;;5070365;28;20722;-74
2022/09/13 00:34:34;;;;;;;8.27;5.77;;;18.20;51.00;;;;;;5070482;28;20455;-73
2022/09/13 00:37:00;;;;;;;9.30;6.30;;;18.20;50.90;;;;;;5070470;28;20384;-72
2022/09/13 00:39:26;;;;;;;7.95;6.55;;;18.20;51.00;;;;;;5072785;28;20471;-73
2022/09/13 00:41:52;;;;;;;12.93;5.80;;;18.20;50.90;;;;;;5073667;28;20415;-72
2022/09/13 00:44:51;;;;;;;7.40;6.13;;;18.20;51.00;;;;;;5074054;28;20441;-74
2022/09/13 00:47:23;;;;;;;7.00;6.10;;;18.20;51.10;;;;;;5074140;28;20384;-72
2022/09/13 00:49:54;;;;;;;8.10;6.10;;;18.20;52.00;;;;;;5073726;28;20404;-72
2022/09/13 00:52:23;;;;;;;7.63;6.07;;;18.10;52.10;;;;;;5073719;28;20540;-72
2022/09/13 00:54:55;;;;;;;7.90;6.13;;;18.20;51.50;;;;;;5073748;28;20384;-73
2022/09/13 00:57:22;;;;;;;7.50;6.30;;;18.30;50.60;;;;;;5076510;28;20391;-74
2022/09/13 00:59:56;;;;;;;6.78;5.97;;;18.30;50.60;;;;;;5077507;28;20415;-74
2022/09/13 01:02:22;;;;;;;7.90;6.40;;;18.20;51.30;;;;;;5075895;28;20387;-73
2022/09/13 01:04:48;;;;;;;8.82;5.80;;;18.20;51.20;;;;;;5076316;28;20922;-73
2022/09/13 01:07:16;;;;;;;7.22;6.28;;;18.10;52.40;;;;;;5075076;28;20388;-73
2022/09/13 01:09:44;;;;;;;6.70;6.07;;;18.00;52.90;;;;;;5075088;28;20971;-73
2022/09/13 01:12:48;;;;;;;10.15;6.20;;;18.00;53.40;;;;;;5074155;28;20383;-72
2022/09/13 01:15:14;;;;;;;7.68;6.20;;;17.90;54.50;;;;;;5029140;28;20386;-73
2022/09/13 01:17:40;;;;;;;10.15;6.30;;;17.90;53.80;;;;;;5073832;28;20375;-70
2022/09/13 01:20:08;;;;;;;9.73;5.93;;;17.90;54.30;;;;;;5074226;28;20740;-73
2022/09/13 01:22:51;;;;;;;9.25;6.28;;;17.80;54.50;;;;;;5074226;28;20436;-74
2022/09/13 01:25:41;;;;;;;7.20;6.10;;;17.90;55.10;;;;;;5089149;28;20372;-74
2022/09/13 01:28:34;;;;;;;8.27;6.28;;;17.90;53.80;;;;;;5086252;28;20395;-73
2022/09/13 01:31:34;;;;;;;8.38;6.50;;;17.90;53.70;;;;;;5093055;28;20386;-74
2022/09/13 01:34:30;;;;;;;7.93;6.03;;;17.80;54.30;;;;;;5086490;28;20376;-73
2022/09/13 01:37:21;;;;;;;12.73;6.35;;;17.90;53.80;;;;;;5072858;28;20403;-73
2022/09/13 01:40:08;;;;;;;8.63;6.57;;;18.00;53.10;;;;;;5072809;28;20394;-73
2022/09/13 01:43:10;;;;;;;8.43;6.22;;;17.90;53.90;;;;;;5072419;28;20471;-73
2022/09/13 01:45:50;;;;;;;12.23;6.47;;;17.90;54.80;;;;;;5072593;28;20388;-73
2022/09/13 01:48:19;;;;;;;6.90;6.20;;;18.00;53.30;;;;;;5072781;28;20408;-74
2022/09/13 01:51:00;;;;;;;7.18;6.47;;;18.00;53.20;;;;;;5072846;28;20388;-74
2022/09/13 01:53:41;;;;;;;7.75;6.70;;;17.90;53.40;;;;;;5054804;28;20415;-74
2022/09/13 01:56:25;;;;;;;10.40;6.20;;;17.90;53.70;;;;;;5072134;28;20821;-73
2022/09/13 01:58:58;;;;;;;7.97;6.28;;;17.90;54.10;;;;;;5072503;28;20387;-73
2022/09/13 02:01:28;;;;;;;6.75;6.15;;;17.80;54.30;;;;;;5072738;28;20494;-74
2022/09/13 02:04:12;;;;;;;10.38;6.22;;;17.90;53.80;;;;;;5072758;28;20575;-73
2022/09/13 02:06:45;;;;;;;8.73;5.90;;;17.80;53.90;;;;;;5072550;28;20725;-73
2022/09/13 02:09:18;;;;;;;7.70;6.37;;;17.70;55.50;;;;;;5072084;28;20764;-73
2022/09/13 02:11:49;;;;;;;7.83;6.43;;;17.70;55.80;;;;;;5071870;28;20387;-73
2022/09/13 02:14:19;;;;;;;9.05;6.57;;;17.70;55.60;;;;;;5072105;28;20399;-74
2022/09/13 02:16:56;;;;;;;14.30;6.75;;;17.80;55.10;;;;;;5071857;28;20380;-73
2022/09/13 02:19:37;;;;;;;7.80;6.50;;;17.80;54.60;;;;;;5071981;28;20729;-73
2022/09/13 02:22:05;;;;;;;8.13;6.50;;;17.80;54.90;;;;;;5071782;28;20387;-73
2022/09/13 02:24:38;;;;;;;9.40;6.50;;;17.80;55.20;;;;;;5071736;28;20384;-73
2022/09/13 02:27:19;;;;;;;11.40;7.00;;;17.80;55.60;;;;;;5071795;28;20747;-73
2022/09/13 02:29:49;;;;;;;11.50;6.60;;;17.80;55.90;;;;;;5053818;28;20407;-73
2022/09/13 02:32:18;;;;;;;8.48;6.30;;;17.90;56.10;;;;;;5071644;28;20872;-73
2022/09/13 02:34:59;;;;;;;13.50;7.10;;;18.00;54.60;;;;;;5071387;28;20387;-73
2022/09/13 02:37:26;;;;;;;9.98;6.30;;;17.90;55.00;;;;;;5071509;28;20392;-73
2022/09/13 02:40:04;;;;;;;9.15;6.72;;;17.90;55.40;;;;;;5071536;28;20383;-73
2022/09/13 02:42:36;;;;;;;7.80;6.47;;;17.90;55.90;;;;;;5071264;28;20441;-73
2022/09/13 02:45:04;;;;;;;8.82;6.40;;;17.90;56.20;;;;;;5071601;28;20740;-73
2022/09/13 02:47:33;;;;;;;10.35;6.70;;;17.80;56.20;;;;;;5071494;28;20444;-73
2022/09/13 02:50:10;;;;;;;9.80;6.85;;;17.80;56.50;;;;;;5071460;28;20403;-73
2022/09/13 02:52:54;;;;;;;9.82;6.65;;;17.80;56.50;;;;;;5071179;28;20913;-72
2022/09/13 02:55:22;;;;;;;10.20;7.30;;;17.90;56.00;;;;;;5071230;28;20391;-74
2022/09/13 02:58:01;;;;;;;8.50;6.53;;;17.90;55.50;;;;;;5071390;28;20834;-74
2022/09/13 03:00:27;;;;;;;9.65;6.72;;;17.90;56.10;;;;;;5070989;28;20445;-73
2022/09/13 03:02:55;;;;;;;8.25;6.43;;;17.90;56.20;;;;;;5070709;28;20380;-73
2022/09/13 03:05:21;;;;;;;19.15;13.88;;;17.90;56.50;;;;;;5070926;28;20376;-73
2022/09/13 03:07:48;;;;;;;15.88;13.02;;;17.90;56.10;;;;;;5070948;28;20384;-73
2022/09/13 03:10:14;;;;;;;13.00;9.77;;;17.90;56.20;;;;;;5053146;28;20876;-73
2022/09/13 03:13:02;;;;;;;9.00;6.60;;;18.00;56.00;;;;;;5070780;28;20391;-73
2022/09/13 03:15:33;;;;;;;11.70;9.20;;;18.00;55.80;;;;;;5052836;28;20880;-73
2022/09/13 03:18:36;;;;;;;10.47;8.33;;;18.00;57.30;;;;;;5053253;28;20892;-73
2022/09/13 03:21:10;;;;;;;16.05;9.80;;;18.00;57.70;;;;;;5071280;28;20914;-73
2022/09/13 03:23:54;;;;;;;12.85;9.00;;;18.00;60.00;;;;;;5071360;28;20730;-73
2022/09/13 03:26:30;;;;;;;13.00;10.50;;;18.00;60.90;;;;;;5072182;28;20437;-74
2022/09/13 03:29:34;;;;;;;20.10;15.27;;;18.00;62.20;;;;;;5072297;28;20445;-74
2022/09/13 03:32:33;;;;;;;12.82;9.13;;;17.90;64.40;;;;;;5067355;28;20751;-74
2022/09/13 03:35:12;;;;;;;16.13;10.25;;;17.80;66.00;;;;;;5071011;28;20871;-73
2022/09/13 03:37:53;;;;;;;9.93;7.50;;;17.80;66.00;;;;;;5070851;28;20470;-72
2022/09/13 03:40:42;;;;;;;35.47;22.42;;;17.80;65.10;;;;;;5070933;28;20398;-73
2022/09/13 03:43:13;;;;;;;19.10;11.15;;;17.80;66.50;;;;;;5070591;28;20383;-72
2022/09/13 03:45:48;;;;;;;14.50;9.63;;;17.80;66.70;;;;;;5052478;28;20384;-72
2022/09/13 03:48:15;;;;;;;10.70;8.02;;;17.80;66.20;;;;;;5071296;28;20407;-72
2022/09/13 03:50:41;;;;;;;27.30;18.67;;;17.80;66.20;;;;;;5071841;28;20411;-73
2022/09/13 03:53:10;;;;;;;12.88;10.88;;;17.70;67.70;;;;;;5052530;28;20395;-73
2022/09/13 03:55:40;;;;;;;18.10;12.97;;;17.70;67.70;;;;;;5070682;28;20383;-72
2022/09/13 03:58:06;;;;;;;16.43;10.10;;;17.80;67.20;;;;;;5052777;28;20383;-74
2022/09/13 04:00:32;;;;;;;22.75;13.77;;;17.80;67.70;;;;;;5070317;28;20490;-73
2022/09/13 04:02:58;;;;;;;14.93;9.45;;;17.70;68.80;;;;;;5070221;28;20388;-73
2022/09/13 04:05:23;;;;;;;16.02;9.75;;;17.70;69.20;;;;;;5070171;28;20783;-73
2022/09/13 04:07:49;;;;;;;14.80;11.10;;;17.70;68.00;;;;;;5070364;28;20415;-73
2022/09/13 04:10:15;;;;;;;22.63;10.73;;;17.70;67.90;;;;;;5070313;28;20388;-73
2022/09/13 04:12:40;;;;;;;23.08;15.40;;;17.70;67.60;;;;;;5069994;28;20383;-73
2022/09/13 04:15:07;;;;;;;11.93;8.15;;;17.70;68.50;;;;;;5073800;28;20450;-73
2022/09/13 04:17:32;;;;;;;24.95;17.02;;;17.70;67.30;;;;;;5073766;28;20948;-72
2022/09/13 04:19:58;;;;;;;19.87;14.03;;;17.70;68.50;;;;;;5074213;28;20458;-73
2022/09/13 04:22:23;;;;;;;36.08;23.45;;;17.70;69.20;;;;;;5073751;28;20396;-74
2022/09/13 04:24:51;;;;;;;17.53;11.27;;;17.70;68.90;;;;;;5073843;28;20388;-73
2022/09/13 04:27:17;;;;;;;18.87;11.83;;;17.80;68.20;;;;;;5073636;28;20394;-73
2022/09/13 04:29:42;;;;;;;16.60;12.60;;;17.80;67.50;;;;;;5073766;28;20403;-73
2022/09/13 04:32:09;;;;;;;18.80;13.50;;;17.80;68.50;;;;;;5073553;28;20820;-73
2022/09/13 04:34:35;;;;;;;48.03;36.33;;;17.70;70.60;;;;;;5055494;28;20376;-72
2022/09/13 04:37:00;;;;;;;15.83;10.83;;;17.70;71.10;;;;;;5055679;28;20730;-72
2022/09/13 04:39:26;;;;;;;15.63;11.97;;;17.70;72.70;;;;;;5073505;28;20380;-72
2022/09/13 04:41:53;;;;;;;15.85;11.55;;;17.70;74.40;;;;;;5073352;28;20380;-73
2022/09/13 04:44:20;;;;;;;22.75;16.48;;;17.60;76.10;;;;;;5073454;28;20755;-73
2022/09/13 04:46:47;;;;;;;38.17;29.73;;;17.60;77.90;;;;;;5073114;28;20448;-73
2022/09/13 04:49:13;;;;;;;16.83;13.00;;;17.50;79.60;;;;;;5073435;28;20403;-73
2022/09/13 04:51:39;;;;;;;24.77;19.67;;;17.40;81.50;;;;;;5073148;28;20399;-73
2022/09/13 04:54:05;;;;;;;21.87;15.33;;;17.40;83.10;;;;;;5073477;28;20380;-74
2022/09/13 04:56:30;;;;;;;30.95;22.50;;;17.50;83.50;;;;;;5073499;28;20794;-72
2022/09/13 04:58:56;;;;;;;14.43;12.00;;;17.50;84.30;;;;;;5073467;28;20406;-72
2022/09/13 05:01:22;;;;;;;24.13;18.33;;;17.50;84.20;;;;;;5073792;28;20380;-72
2022/09/13 05:03:51;;;;;;;20.70;14.45;;;17.40;86.10;;;;;;5073265;28;20384;-72
2022/09/13 05:06:17;;;;;;;28.42;21.73;;;17.40;86.90;;;;;;5073132;28;20865;-73
2022/09/13 05:08:43;;;;;;;30.30;23.15;;;17.40;87.20;;;;;;5055551;28;20407;-73
2022/09/13 05:11:08;;;;;;;18.20;13.13;;;17.30;88.30;;;;;;5073001;28;20458;-73
2022/09/13 05:13:34;;;;;;;21.10;16.65;;;17.50;86.90;;;;;;5072955;28;20537;-73
2022/09/13 05:16:05;;;;;;;17.20;13.90;;;17.40;87.60;;;;;;5072897;28;20384;-73
2022/09/13 05:18:33;;;;;;;15.38;12.88;;;17.30;88.10;;;;;;5072897;28;20529;-74
2022/09/13 05:21:00;;;;;;;16.92;12.27;;;17.30;88.80;;;;;;5072958;28;20391;-74
2022/09/13 05:23:27;;;;;;;24.25;16.90;;;17.30;89.20;;;;;;5072629;28;20403;-74
2022/09/13 05:25:54;;;;;;;16.00;12.18;;;17.20;89.90;;;;;;5072874;28;20941;-74
2022/09/13 05:28:21;;;;;;;19.85;14.85;;;17.20;90.60;;;;;;5072126;28;20505;-74
2022/09/13 05:31:00;;;;;;;24.52;13.63;;;17.20;90.70;;;;;;5072480;28;20378;-73
2022/09/13 05:33:28;;;;;;;15.50;12.95;;;17.20;90.90;;;;;;5072580;28;20388;-73
2022/09/13 05:35:54;;;;;;;17.25;12.40;;;17.30;90.90;;;;;;5068590;28;20505;-72
2022/09/13 05:38:20;;;;;;;16.55;13.00;;;17.30;89.70;;;;;;5057104;28;20472;-72
2022/09/13 05:40:46;;;;;;;27.95;15.85;;;17.30;89.80;;;;;;5052196;28;20454;-73
2022/09/13 05:43:12;;;;;;;23.25;13.05;;;17.30;89.80;;;;;;5034922;28;20906;-71
2022/09/13 05:45:38;;;;;;;28.70;18.90;;;17.40;88.80;;;;;;5052027;28;20429;-73
2022/09/13 05:48:04;;;;;;;30.90;13.23;;;17.40;88.40;;;;;;5052290;28;20412;-72
2022/09/13 05:50:29;;;;;;;22.63;16.43;;;17.50;87.90;;;;;;5058539;28;20391;-73
2022/09/13 05:52:56;;;;;;;23.30;11.60;;;17.50;86.00;;;;;;5072283;28;20856;-72
2022/09/13 05:55:22;;;;;;;22.70;15.97;;;17.70;83.30;;;;;;5066025;28;20421;-72
2022/09/13 05:57:49;;;;;;;20.88;13.77;;;17.70;83.00;;;;;;5060574;28;20498;-72
2022/09/13 06:00:15;;;;;;;26.88;15.40;;;17.70;82.00;;;;;;5067817;28;20393;-72
2022/09/13 06:02:41;;;;;;;24.48;18.45;;;17.70;81.40;;;;;;5050596;28;20400;-73
2022/09/13 06:05:09;;;;;;;27.55;17.85;;;17.70;81.30;;;;;;5050261;28;20708;-73
2022/09/13 06:07:35;;;;;;;23.10;15.35;;;17.80;80.00;;;;;;5065843;28;20391;-73
2022/09/13 06:10:03;;;;;;;17.92;11.40;;;17.80;80.60;;;;;;5070263;28;20415;-73
2022/09/13 06:12:29;;;;;;;21.52;15.85;;;17.80;79.00;;;;;;5071452;28;20396;-73
2022/09/13 06:14:55;;;;;;;22.52;16.60;;;17.90;79.70;;;;;;5050663;28;20873;-73
2022/09/13 06:17:20;;;;;;;39.00;29.57;;;17.90;78.80;;;;;;5049678;28;20404;-73
2022/09/13 06:19:46;;;;;;;14.00;9.13;;;18.00;77.00;;;;;;5049706;28;20762;-73
2022/09/13 06:22:11;;;;;;;35.83;22.08;;;18.10;74.50;;;;;;5066005;28;20427;-73
2022/09/13 06:24:37;;;;;;;29.73;18.23;;;18.20;74.00;;;;;;5073598;28;20407;-73
2022/09/13 06:27:03;;;;;;;49.05;36.85;;;18.20;72.80;;;;;;5069836;28;20405;-72
2022/09/13 06:29:28;;;;;;;80.13;61.83;;;18.30;70.80;;;;;;5069971;28;20415;-72
2022/09/13 06:31:54;;;;;;;130.80;103.03;;;18.30;71.60;;;;;;5055874;28;20758;-73
2022/09/13 06:34:19;;;;;;;43.07;33.27;;;18.40;72.00;;;;;;5066291;28;20756;-72
2022/09/13 06:36:45;;;;;;;34.33;15.73;;;18.40;70.80;;;;;;5062538;28;20389;-73
2022/09/13 06:39:11;;;;;;;14.70;10.37;;;18.50;69.50;;;;;;5050298;28;20817;-72
2022/09/13 06:41:36;;;;;;;17.50;12.97;;;18.70;66.50;;;;;;5049500;28;20404;-72
2022/09/13 06:44:03;;;;;;;24.13;15.37;;;18.80;64.80;;;;;;5049212;28;20770;-72
2022/09/13 06:46:31;;;;;;;18.00;9.95;;;18.90;64.00;;;;;;5048026;28;20398;-72
2022/09/13 06:49:02;;;;;;;18.38;9.63;;;19.00;63.00;;;;;;5049897;28;20416;-72
2022/09/13 06:51:29;;;;;;;13.60;8.50;;;19.10;60.80;;;;;;5067675;28;20467;-72
2022/09/13 06:53:58;;;;;;;12.45;8.52;;;19.10;60.50;;;;;;5070732;28;20380;-73
2022/09/13 06:56:33;;;;;;;9.40;7.88;;;19.20;57.90;;;;;;5069568;28;20453;-73
2022/09/13 06:59:03;;;;;;;12.70;8.32;;;19.20;57.40;;;;;;5070061;28;20395;-73
2022/09/13 07:01:40;;;;;;;13.23;7.93;;;19.40;54.80;;;;;;5069305;28;20384;-73
2022/09/13 07:04:11;;;;;;;19.67;9.40;;;19.30;55.60;;;;;;5069483;28;20384;-73
2022/09/13 07:06:42;;;;;;;10.45;7.72;;;19.40;55.80;;;;;;5064277;28;20416;-73
2022/09/13 07:09:16;;;;;;;15.93;9.18;;;19.30;55.80;;;;;;5055918;28;20407;-73
2022/09/13 07:11:43;;;;;;;11.88;8.40;;;19.30;56.40;;;;;;5070697;28;20403;-73
2022/09/13 07:14:23;;;;;;;12.20;8.60;;;19.40;56.00;;;;;;5069112;28;20498;-73
2022/09/13 07:16:50;;;;;;;13.65;8.93;;;19.50;55.70;;;;;;5070681;28;20388;-72
2022/09/13 07:19:26;;;;;;;16.10;9.30;;;19.60;54.90;;;;;;5051789;28;20398;-74
2022/09/13 07:21:53;;;;;;;13.77;9.13;;;19.60;54.80;;;;;;5055562;28;20526;-73
2022/09/13 07:24:19;;;;;;;12.73;8.80;;;19.70;54.30;;;;;;5068456;28;20388;-71
2022/09/13 07:26:46;;;;;;;11.02;8.30;;;19.70;54.70;;;;;;5068266;28;20418;-73
2022/09/13 07:29:15;;;;;;;17.13;9.60;;;19.70;55.40;;;;;;5068682;28;20403;-72
2022/09/13 07:31:43;;;;;;;13.65;8.95;;;19.70;55.40;;;;;;5068311;28;20440;-72
2022/09/13 07:34:17;;;;;;;16.33;8.03;;;19.80;54.90;;;;;;5068775;28;20380;-73
2022/09/13 07:36:45;;;;;;;14.93;8.93;;;20.00;53.00;;;;;;5052920;28;20518;-73
2022/09/13 07:39:11;;;;;;;14.47;9.13;;;20.10;52.30;;;;;;5048668;28;20385;-73
2022/09/13 07:41:37;;;;;;;11.07;8.50;;;20.20;52.10;;;;;;5048803;28;20396;-73
2022/09/13 07:44:06;;;;;;;11.30;8.85;;;20.30;50.50;;;;;;5051007;28;20491;-73
2022/09/13 07:46:35;;;;;;;14.80;9.00;;;20.40;49.20;;;;;;5048267;28;20397;-73
2022/09/13 07:49:01;;;;;;;12.75;8.70;;;20.60;49.60;;;;;;5052147;28;20409;-72
2022/09/13 07:51:29;;;;;;;14.73;8.73;;;20.60;48.70;;;;;;5070749;28;20383;-73
2022/09/13 07:53:59;;;;;;;11.75;9.32;;;20.70;46.10;;;;;;5051440;28;20499;-73
2022/09/13 07:56:27;;;;;;;15.13;8.73;;;20.70;46.60;;;;;;5052097;28;20472;-72
2022/09/13 07:58:54;;;;;;;17.00;10.63;;;20.70;46.80;;;;;;5052159;28;20535;-72
2022/09/13 08:01:23;;;;;;;12.25;8.70;;;20.70;47.30;;;;;;5052110;28;20396;-72
2022/09/13 08:03:51;;;;;;;14.77;8.90;;;20.90;45.80;;;;;;5071585;28;21604;-72
2022/09/13 08:06:17;;;;;;;17.15;9.93;;;21.00;45.90;;;;;;5071694;28;20953;-72
2022/09/13 08:08:43;;;;;;;17.83;9.40;;;21.00;45.60;;;;;;5066210;28;20453;-72
2022/09/13 08:11:15;;;;;;;14.23;9.40;;;21.20;44.80;;;;;;5073816;28;20814;-72
2022/09/13 08:13:40;;;;;;;14.50;8.93;;;21.30;44.00;;;;;;5080642;28;20388;-72
2022/09/13 08:16:06;;;;;;;16.63;9.27;;;21.20;43.70;;;;;;5061614;28;20390;-72
2022/09/13 08:18:32;;;;;;;18.00;9.43;;;21.20;43.80;;;;;;5059386;28;20429;-73
2022/09/13 08:20:59;;;;;;;14.50;9.85;;;21.30;42.70;;;;;;5071874;28;20387;-73
2022/09/13 08:23:25;;;;;;;12.65;8.50;;;21.40;42.50;;;;;;5059635;28;20774;-73
2022/09/13 08:25:51;;;;;;;12.30;8.95;;;21.50;42.80;;;;;;5051876;28;20385;-72
2022/09/13 08:28:20;;;;;;;21.95;10.02;;;21.70;41.70;;;;;;5067209;28;20429;-72
2022/09/13 08:30:46;;;;;;;12.65;7.43;;;21.70;40.80;;;;;;5053543;28;20384;-73
2022/09/13 08:33:12;;;;;;;13.82;9.73;;;22.00;39.60;;;;;;5057806;28;20401;-74
2022/09/13 08:35:38;;;;;;;20.30;14.00;;;22.00;38.80;;;;;;5051835;28;20443;-72
2022/09/13 08:38:05;;;;;;;11.95;9.98;;;22.00;38.60;;;;;;5055294;28;20478;-73
2022/09/13 08:40:40;;;;;;;33.33;22.08;;;22.20;37.60;;;;;;5064029;28;20422;-74
2022/09/13 08:43:19;;;;;;;35.13;23.77;;;22.40;37.00;;;;;;5055673;28;20483;-74
2022/09/13 08:46:13;;;;;;;24.42;17.95;;;22.30;36.70;;;;;;5061658;28;20494;-73
2022/09/13 08:48:43;;;;;;;24.45;16.63;;;22.40;36.60;;;;;;5042840;28;20408;-73
2022/09/13 08:51:30;;;;;;;23.23;16.50;;;22.40;35.80;;;;;;5069219;28;20399;-73
2022/09/13 08:53:56;;;;;;;19.38;11.07;;;22.40;35.80;;;;;;5068473;28;20384;-72
2022/09/13 08:56:27;;;;;;;19.73;11.30;;;22.40;34.40;;;;;;5063663;28;20564;-73
2022/09/13 08:59:18;;;;;;;13.35;9.75;;;22.50;34.40;;;;;;5070935;28;20760;-73
2022/09/13 09:02:06;;;;;;;18.85;9.30;;;22.70;33.90;;;;;;5058433;28;21112;-73
2022/09/13 09:04:53;;;;;;;20.90;15.00;;;23.00;32.20;;;;;;5052856;28;20450;-73
2022/09/13 09:07:37;;;;;;;19.48;9.55;;;23.10;32.00;;;;;;5053532;28;20397;-72
2022/09/13 09:10:34;;;;;;;20.27;12.83;;;23.20;31.50;;;;;;5052445;28;20409;-73
2022/09/13 09:13:12;;;;;;;13.95;9.15;;;23.20;31.30;;;;;;5043835;28;20382;-72
2022/09/13 09:15:43;;;;;;;16.45;8.10;;;23.40;30.40;;;;;;5052374;28;20409;-73
2022/09/13 09:18:19;;;;;;;15.60;7.85;;;23.60;29.60;;;;;;5052125;28;20793;-72
2022/09/13 09:20:48;;;;;;;12.93;9.25;;;23.90;28.70;;;;;;5050950;28;20381;-73
2022/09/13 09:23:21;;;;;;;21.05;10.55;;;24.20;27.00;;;;;;5049833;28;20909;-72
2022/09/13 09:25:49;;;;;;;15.85;10.45;;;24.00;27.20;;;;;;5051103;28;20425;-74
2022/09/13 09:28:17;;;;;;;15.25;10.95;;;24.00;27.30;;;;;;5050133;28;20482;-73
2022/09/13 09:31:07;;;;;;;15.85;9.60;;;23.80;28.00;;;;;;5050399;28;20392;-74
2022/09/13 09:33:54;;;;;;;18.42;10.15;;;24.00;27.70;;;;;;5050728;28;20408;-73
2022/09/13 09:36:28;;;;;;;15.23;9.00;;;24.10;26.80;;;;;;5064703;28;20478;-73
2022/09/13 09:38:54;;;;;;;25.20;10.73;;;24.30;26.10;;;;;;5070605;28;20800;-72
2022/09/13 09:41:26;;;;;;;41.50;28.85;;;24.60;25.30;;;;;;5071901;28;20521;-73
2022/09/13 09:44:04;;;;;;;30.65;17.00;;;24.50;24.90;;;;;;5069116;28;20872;-72
2022/09/13 09:46:34;;;;;;;15.40;9.10;;;24.40;24.70;;;;;;5050404;28;20408;-72
2022/09/13 09:52:11;;;;;;;14.27;8.93;;;25.00;23.00;;;;;;5051735;28;20384;-74
2022/09/13 09:54:37;;;;;;;12.35;8.68;;;25.00;21.40;;;;;;5051540;28;20954;-74
2022/09/13 09:57:07;;;;;;;14.43;8.82;;;25.00;22.00;;;;;;5081854;23;20428;-71
2022/09/13 09:59:35;;;;;;;31.13;19.70;;;25.00;22.10;;;;;;5072606;28;20459;-72
2022/09/13 10:02:16;;;;;;;26.67;11.10;;;24.80;22.70;;;;;;5072357;28;20801;-71
2022/09/13 10:04:42;;;;;;;21.90;11.13;;;24.50;22.80;;;;;;5072054;28;20384;-73
2022/09/13 10:07:29;;;;;;;19.58;8.18;;;24.40;23.40;;;;;;5072147;28;20550;-71
2022/09/13 10:10:03;;;;;;;24.25;13.75;;;24.70;23.00;;;;;;5071529;28;20821;-71
2022/09/13 10:12:32;;;;;;;15.32;9.43;;;25.00;21.80;;;;;;5071138;28;20387;-71
2022/09/13 10:15:06;;;;;;;13.90;8.27;;;25.20;21.00;;;;;;5070067;28;20399;-72
2022/09/13 10:17:32;;;;;;;14.18;8.00;;;25.60;19.80;;;;;;5068599;28;20392;-72
2022/09/13 10:20:00;;;;;;;16.30;9.30;;;25.70;19.80;;;;;;5072927;28;20403;-71
2022/09/13 10:22:27;;;;;;;14.90;8.88;;;25.60;19.90;;;;;;5063582;28;20408;-72
2022/09/13 10:24:53;;;;;;;11.90;8.85;;;25.60;19.50;;;;;;5052874;28;20394;-71
2022/09/13 10:27:27;;;;;;;13.98;8.35;;;25.50;19.20;;;;;;5065570;28;20752;-72
2022/09/13 10:29:58;;;;;;;16.60;9.20;;;25.50;19.00;;;;;;5073463;28;20392;-71
2022/09/13 10:32:24;;;;;;;14.95;8.60;;;25.40;19.20;;;;;;5073056;28;20732;-71
2022/09/13 10:34:54;;;;;;;12.85;8.80;;;25.60;19.40;;;;;;5073452;28;20895;-70
2022/09/13 10:37:25;;;;;;;13.23;8.60;;;25.80;19.00;;;;;;5073861;28;20383;-72
2022/09/13 10:40:21;;;;;;;21.50;11.90;;;25.80;18.90;;;;;;5077085;28;20392;-71
2022/09/13 10:42:55;;;;;;;11.02;8.50;;;25.80;18.80;;;;;;5070898;28;20403;-72
2022/09/13 10:45:26;;;;;;;13.18;7.55;;;25.90;18.20;;;;;;5076540;28;20414;-72
2022/09/13 10:47:54;;;;;;;14.10;7.72;;;26.00;18.40;;;;;;5100497;28;20396;-72
2022/09/13 10:50:25;;;;;;;12.35;5.75;;;26.30;18.40;;;;;;5080592;28;20513;-71
2022/09/13 10:52:56;;;;;;;11.68;6.80;;;26.20;18.30;;;;;;5072843;28;20407;-78
2022/09/13 10:55:21;;;;;;;9.90;7.05;;;25.80;18.40;;;;;;5059233;28;20397;-81
2022/09/13 10:57:52;;;;;;;9.30;5.87;;;25.50;18.60;;;;;;5074380;28;20398;-78
2022/09/13 11:00:34;;;;;;;10.63;5.97;;;25.50;19.10;;;;;;5074291;28;20761;-70
2022/09/13 11:03:00;;;;;;;12.77;7.15;;;25.70;19.40;;;;;;5073094;28;20383;-71
2022/09/13 11:05:42;;;;;;;10.13;6.13;;;25.40;19.50;;;;;;5066365;28;20399;-72
2022/09/13 11:08:23;;;;;;;9.38;6.30;;;25.30;19.90;;;;;;5064444;28;20489;-73
2022/09/13 11:11:10;;;;;;;11.63;5.40;;;25.40;19.60;;;;;;5074626;28;20529;-72
2022/09/13 11:14:26;;;;;;;9.88;6.78;;;25.30;19.90;;;;;;5073635;28;20391;-71
2022/09/13 11:17:22;;;;;;;10.95;6.30;;;25.10;20.50;;;;;;5063570;28;20491;-71
2022/09/13 11:20:12;;;;;;;9.88;6.60;;;25.30;20.30;;;;;;5074580;28;20482;-74
2022/09/13 11:22:46;;;;;;;8.35;4.85;;;25.30;20.50;;;;;;5054609;28;20389;-71
2022/09/13 11:25:41;;;;;;;9.18;6.10;;;25.30;20.60;;;;;;5065541;28;20422;-73
2022/09/13 11:28:18;;;;;;;6.95;5.78;;;25.20;20.60;;;;;;5073721;28;20398;-72
2022/09/13 11:31:25;;;;;;;12.50;6.50;;;25.10;21.00;;;;;;5065852;28;20866;-71
2022/09/13 11:34:00;;;;;;;11.65;5.97;;;25.10;21.30;;;;;;4979385;28;20404;-70
2022/09/13 11:36:49;;;;;;;9.98;5.90;;;25.20;21.80;;;;;;4988342;28;20419;-71
2022/09/13 11:39:30;;;;;;;7.68;5.10;;;25.20;21.20;;;;;;5028327;28;20886;-71
2022/09/13 11:42:15;;;;;;;9.52;5.40;;;25.40;21.00;;;;;;5053558;28;20417;-73
2022/09/13 11:44:44;;;;;;;10.48;5.40;;;25.60;20.00;;;;;;5053090;28;20480;-71
2022/09/13 11:47:12;;;;;;;8.05;4.65;;;25.80;19.20;;;;;;5052607;28;20424;-72
2022/09/13 11:50:02;;;;;;;9.20;4.68;;;25.70;19.60;;;;;;5053575;28;20404;-71
2022/09/13 11:53:02;;;;;;;13.88;5.90;;;25.90;19.10;;;;;;5050349;28;20455;-70
2022/09/13 11:55:47;;;;;;;12.43;5.80;;;26.00;19.10;;;;;;5053863;28;20381;-72
2022/09/13 11:58:38;;;;;;;11.00;5.25;;;26.30;18.20;;;;;;5036482;28;20492;-71
2022/09/13 12:01:08;;;;;;;8.80;5.93;;;26.40;17.90;;;;;;5053726;28;20395;-71
2022/09/13 12:03:59;;;;;;;9.80;4.85;;;26.60;17.30;;;;;;5053426;28;20477;-71
2022/09/13 12:06:30;;;;;;;5.70;4.20;;;26.40;17.80;;;;;;5054528;28;20382;-72
2022/09/13 12:09:01;;;;;;;8.73;4.72;;;26.60;17.30;;;;;;5052784;28;20758;-72
2022/09/13 12:11:33;;;;;;;7.22;5.07;;;26.80;17.00;;;;;;5051558;28;20382;-71
2022/09/13 12:14:03;;;;;;;12.30;5.10;;;26.80;17.60;;;;;;5052435;28;20674;-71
2022/09/13 12:16:42;;;;;;;8.93;5.23;;;26.70;17.50;;;;;;5055609;28;20382;-71
2022/09/13 12:19:21;;;;;;;11.93;5.32;;;26.60;18.00;;;;;;5062886;28;20434;-72
2022/09/13 12:21:48;;;;;;;7.00;5.63;;;26.60;18.10;;;;;;5067510;28;20370;-72
2022/09/13 12:24:38;;;;;;;8.17;4.97;;;26.60;16.80;;;;;;5069108;28;20396;-70
2022/09/13 12:27:30;;;;;;;8.33;4.80;;;26.60;17.20;;;;;;5069254;28;20447;-73
2022/09/13 12:30:29;;;;;;;5.68;4.50;;;26.90;16.90;;;;;;5060277;28;20400;-72
2022/09/13 12:32:54;;;;;;;10.83;6.70;;;27.00;17.10;;;;;;5051910;28;20751;-73
2022/09/13 12:35:39;;;;;;;10.07;6.90;;;26.80;16.90;;;;;;5054790;28;20465;-73
2022/09/13 12:38:16;;;;;;;9.35;5.53;;;26.50;17.90;;;;;;5056092;28;20386;-71
2022/09/13 12:41:20;;;;;;;8.43;5.40;;;26.50;17.40;;;;;;5057772;28;20469;-72
2022/09/13 12:43:52;;;;;;;7.63;5.15;;;26.50;17.80;;;;;;5058095;28;20373;-72
2022/09/13 12:46:26;;;;;;;10.20;5.70;;;26.50;18.00;;;;;;5057399;28;21092;-71
2022/09/13 12:49:15;;;;;;;6.50;5.15;;;26.60;17.40;;;;;;5064033;28;20404;-72
2022/09/13 12:52:00;;;;;;;9.50;5.75;;;26.30;18.20;;;;;;5064724;28;20957;-71
2022/09/13 12:54:56;;;;;;;8.90;5.70;;;26.20;18.30;;;;;;5063776;28;20377;-73
2022/09/13 12:57:51;;;;;;;7.63;5.13;;;26.30;18.40;;;;;;5062932;28;20497;-72
2022/09/13 13:00:35;;;;;;;11.38;6.25;;;26.30;17.90;;;;;;5061023;28;20720;-71
2022/09/13 13:03:11;;;;;;;11.27;6.75;;;26.20;18.60;;;;;;5059978;28;20393;-72
2022/09/13 13:06:05;;;;;;;10.43;7.10;;;26.30;18.20;;;;;;5060746;28;20464;-73
2022/09/13 13:08:32;;;;;;;12.52;5.10;;;26.40;18.10;;;;;;5063273;28;20451;-73